sensor_id;sensor_type;location;lat;lon;timestamp;pressure;altitude;pressure_sealevel;temperature;humidity
43804;BME280;29430;52.924;-2.388;2024-03-23T00:57:57;98957.75;;;4.22;94.08
43804;BME280;29430;52.924;-2.388;2024-03-23T01:02:47;98949.88;;;4.21;94.28
43804;BME280;29430;52.924;-2.388;2024-03-23T01:07:38;98942.63;;;4.15;94.27
43804;BME280;29430;52.924;-2.388;2024-03-23T01:12:28;98938.44;;;4.12;94.49
43804;BME280;29430;52.924;-2.388;2024-03-23T01:17:19;98938.84;;;4.09;94.63
43804;BME280;29430;52.924;-2.388;2024-03-23T01:22:10;98937.59;;;4.05;95.11
43804;BME280;29430;52.924;-2.388;2024-03-23T01:27:00;98920.84;;;4.03;95.21
43804;BME280;29430;52.924;-2.388;2024-03-23T01:31:51;98913.66;;;4.03;95.36
43804;BME280;29430;52.924;-2.388;2024-03-23T01:36:42;98900.16;;;3.97;95.25
43804;BME280;29430;52.924;-2.388;2024-03-23T01:41:32;98909.25;;;3.96;96.08
43804;BME280;29430;52.924;-2.388;2024-03-23T01:46:23;98898.91;;;3.92;95.88
43804;BME280;29430;52.924;-2.388;2024-03-23T01:51:14;98892.50;;;3.93;96.05
43804;BME280;29430;52.924;-2.388;2024-03-23T01:56:05;98885.03;;;3.89;96.15
43804;BME280;29430;52.924;-2.388;2024-03-23T02:00:57;98886.72;;;3.90;96.57
43804;BME280;29430;52.924;-2.388;2024-03-23T02:05:48;98880.91;;;3.86;96.91
43804;BME280;29430;52.924;-2.388;2024-03-23T02:10:39;98884.81;;;3.84;97.07
43804;BME280;29430;52.924;-2.388;2024-03-23T02:15:29;98882.50;;;3.81;97.16
43804;BME280;29430;52.924;-2.388;2024-03-23T02:20:20;98887.88;;;3.81;96.99
43804;BME280;29430;52.924;-2.388;2024-03-23T02:25:10;98878.34;;;3.78;96.72
43804;BME280;29430;52.924;-2.388;2024-03-23T02:30:01;98868.88;;;3.75;96.83
43804;BME280;29430;52.924;-2.388;2024-03-23T02:34:52;98857.47;;;3.73;97.10
43804;BME280;29430;52.924;-2.388;2024-03-23T02:39:43;98860.81;;;3.75;97.22
43804;BME280;29430;52.924;-2.388;2024-03-23T02:44:33;98858.72;;;3.71;97.49
43804;BME280;29430;52.924;-2.388;2024-03-23T02:49:25;98846.13;;;3.71;97.77
43804;BME280;29430;52.924;-2.388;2024-03-23T02:54:16;98854.56;;;3.68;97.97
43804;BME280;29430;52.924;-2.388;2024-03-23T02:59:06;98840.97;;;3.70;98.19
43804;BME280;29430;52.924;-2.388;2024-03-23T03:03:57;98839.56;;;3.74;98.39
43804;BME280;29430;52.924;-2.388;2024-03-23T03:08:47;98836.47;;;3.77;98.80
43804;BME280;29430;52.924;-2.388;2024-03-23T03:13:38;98829.88;;;3.80;99.30
43804;BME280;29430;52.924;-2.388;2024-03-23T03:18:29;98805.53;;;3.81;99.99
43804;BME280;29430;52.924;-2.388;2024-03-23T03:23:20;98817.53;;;3.85;100.00
43804;BME280;29430;52.924;-2.388;2024-03-23T03:28:10;98810.50;;;3.84;100.00
43804;BME280;29430;52.924;-2.388;2024-03-23T03:33:01;98816.53;;;3.86;100.00
43804;BME280;29430;52.924;-2.388;2024-03-23T03:37:52;98806.66;;;3.93;100.00
43804;BME280;29430;52.924;-2.388;2024-03-23T03:42:42;98797.59;;;3.94;100.00
43804;BME280;29430;52.924;-2.388;2024-03-23T03:47:33;98794.91;;;3.94;100.00
43804;BME280;29430;52.924;-2.388;2024-03-23T03:52:24;98782.09;;;3.90;100.00
43804;BME280;29430;52.924;-2.388;2024-03-23T03:57:14;98788.28;;;3.90;100.00
43804;BME280;29430;52.924;-2.388;2024-03-23T04:02:05;98799.84;;;3.91;100.00
43804;BME280;29430;52.924;-2.388;2024-03-23T04:07:02;98781.88;;;3.91;100.00
43804;BME280;29430;52.924;-2.388;2024-03-23T04:11:53;98782.09;;;3.90;100.00
43804;BME280;29430;52.924;-2.388;2024-03-23T04:16:44;98768.88;;;3.88;99.78
43804;BME280;29430;52.924;-2.388;2024-03-23T04:21:35;98758.13;;;3.82;99.43
43804;BME280;29430;52.924;-2.388;2024-03-23T04:26:26;98769.25;;;3.85;99.53
43804;BME280;29430;52.924;-2.388;2024-03-23T04:31:17;98757.53;;;3.86;100.00
43804;BME280;29430;52.924;-2.388;2024-03-23T04:36:07;98750.50;;;3.92;100.00
43804;BME280;29430;52.924;-2.388;2024-03-23T04:40:59;98760.03;;;3.94;99.46
43804;BME280;29430;52.924;-2.388;2024-03-23T04:45:50;98763.31;;;3.90;98.80
43804;BME280;29430;52.924;-2.388;2024-03-23T04:50:40;98761.84;;;3.87;99.40
43804;BME280;29430;52.924;-2.388;2024-03-23T04:55:31;98755.66;;;3.87;99.69
43804;BME280;29430;52.924;-2.388;2024-03-23T05:00:22;98735.66;;;3.89;100.00
43804;BME280;29430;52.924;-2.388;2024-03-23T05:05:13;98741.44;;;3.86;100.00
43804;BME280;29430;52.924;-2.388;2024-03-23T05:10:04;98727.75;;;3.81;100.00
43804;BME280;29430;52.924;-2.388;2024-03-23T05:14:55;98729.03;;;3.85;100.00
43804;BME280;29430;52.924;-2.388;2024-03-23T05:19:46;98735.59;;;3.83;100.00
43804;BME280;29430;52.924;-2.388;2024-03-23T05:24:36;98713.94;;;3.78;100.00
43804;BME280;29430;52.924;-2.388;2024-03-23T05:29:27;98701.31;;;3.71;100.00
43804;BME280;29430;52.924;-2.388;2024-03-23T05:34:19;98694.69;;;3.67;100.00
43804;BME280;29430;52.924;-2.388;2024-03-23T05:39:10;98693.25;;;3.65;100.00
43804;BME280;29430;52.924;-2.388;2024-03-23T05:44:01;98703.53;;;3.61;100.00
43804;BME280;29430;52.924;-2.388;2024-03-23T05:48:51;98702.91;;;3.59;100.00
43804;BME280;29430;52.924;-2.388;2024-03-23T05:53:42;98682.03;;;3.54;100.00
43804;BME280;29430;52.924;-2.388;2024-03-23T05:58:33;98682.44;;;3.51;100.00
43804;BME280;29430;52.924;-2.388;2024-03-23T06:03:24;98680.34;;;3.47;100.00
43804;BME280;29430;52.924;-2.388;2024-03-23T06:08:14;98663.84;;;3.43;100.00
43804;BME280;29430;52.924;-2.388;2024-03-23T06:13:05;98671.88;;;3.43;100.00
43804;BME280;29430;52.924;-2.388;2024-03-23T06:17:56;98682.59;;;3.43;100.00
43804;BME280;29430;52.924;-2.388;2024-03-23T06:22:47;98678.69;;;3.46;100.00
43804;BME280;29430;52.924;-2.388;2024-03-23T06:27:37;98680.34;;;3.47;100.00
43804;BME280;29430;52.924;-2.388;2024-03-23T06:32:29;98671.09;;;3.49;100.00
43804;BME280;29430;52.924;-2.388;2024-03-23T06:37:20;98682.03;;;3.54;100.00
43804;BME280;29430;52.924;-2.388;2024-03-23T06:42:10;98688.47;;;3.60;100.00
43804;BME280;29430;52.924;-2.388;2024-03-23T06:47:01;98681.47;;;3.66;100.00
43804;BME280;29430;52.924;-2.388;2024-03-23T06:51:53;98679.03;;;3.71;100.00
43804;BME280;29430;52.924;-2.388;2024-03-23T06:56:46;98673.53;;;3.86;100.00
43804;BME280;29430;52.924;-2.388;2024-03-23T07:01:37;98666.78;;;4.03;100.00
43804;BME280;29430;52.924;-2.388;2024-03-23T07:06:28;98653.19;;;4.11;100.00
43804;BME280;29430;52.924;-2.388;2024-03-23T07:11:19;98650.75;;;4.30;100.00
43804;BME280;29430;52.924;-2.388;2024-03-23T07:16:10;98654.09;;;5.06;100.00
43804;BME280;29430;52.924;-2.388;2024-03-23T07:21:01;98649.97;;;5.82;99.66
43804;BME280;29430;52.924;-2.388;2024-03-23T07:26:02;98641.34;;;6.18;94.86
43804;BME280;29430;52.924;-2.388;2024-03-23T07:31:03;98652.66;;;6.27;91.96
43804;BME280;29430;52.924;-2.388;2024-03-23T07:35:54;98633.88;;;6.20;90.54
43804;BME280;29430;52.924;-2.388;2024-03-23T07:40:45;98631.88;;;6.09;90.07
43804;BME280;29430;52.924;-2.388;2024-03-23T07:45:35;98621.53;;;6.06;89.89
43804;BME280;29430;52.924;-2.388;2024-03-23T07:50:28;98617.81;;;6.00;89.70
43804;BME280;29430;52.924;-2.388;2024-03-23T07:55:18;98622.38;;;6.00;90.73
43804;BME280;29430;52.924;-2.388;2024-03-23T08:00:09;98616.19;;;6.63;92.55
43804;BME280;29430;52.924;-2.388;2024-03-23T08:05:00;98618.16;;;6.74;86.86
43804;BME280;29430;52.924;-2.388;2024-03-23T08:09:51;98619.63;;;6.70;86.24
43804;BME280;29430;52.924;-2.388;2024-03-23T08:14:41;98628.22;;;6.60;85.64
43804;BME280;29430;52.924;-2.388;2024-03-23T08:19:32;98620.19;;;6.54;86.46
43804;BME280;29430;52.924;-2.388;2024-03-23T08:24:22;98626.97;;;6.56;85.87
43804;BME280;29430;52.924;-2.388;2024-03-23T08:29:13;98628.66;;;6.57;85.71
43804;BME280;29430;52.924;-2.388;2024-03-23T08:34:04;98628.66;;;6.57;85.85
43804;BME280;29430;52.924;-2.388;2024-03-23T08:38:54;98613.06;;;6.66;85.80
43804;BME280;29430;52.924;-2.388;2024-03-23T08:43:45;98615.00;;;6.77;85.71
43804;BME280;29430;52.924;-2.388;2024-03-23T08:48:38;98606.47;;;7.06;87.73
43804;BME280;29430;52.924;-2.388;2024-03-23T08:53:29;98598.47;;;7.73;84.19
43804;BME280;29430;52.924;-2.388;2024-03-23T08:58:20;98578.78;;;8.57;82.55
43804;BME280;29430;52.924;-2.388;2024-03-23T09:03:11;98584.56;;;9.31;76.79
43804;BME280;29430;52.924;-2.388;2024-03-23T09:08:01;98589.75;;;9.85;73.29
43804;BME280;29430;52.924;-2.388;2024-03-23T09:12:52;98595.94;;;9.98;71.29
43804;BME280;29430;52.924;-2.388;2024-03-23T09:17:43;98586.59;;;10.06;70.10
43804;BME280;29430;52.924;-2.388;2024-03-23T09:22:33;98578.84;;;9.97;69.99
43804;BME280;29430;52.924;-2.388;2024-03-23T09:27:26;98581.41;;;9.75;68.12
43804;BME280;29430;52.924;-2.388;2024-03-23T09:32:16;98587.84;;;9.45;68.62
43804;BME280;29430;52.924;-2.388;2024-03-23T09:37:07;98581.03;;;9.31;70.47
43804;BME280;29430;52.924;-2.388;2024-03-23T09:41:58;98576.47;;;9.31;69.11
43804;BME280;29430;52.924;-2.388;2024-03-23T09:46:48;98556.09;;;9.17;72.34
43804;BME280;29430;52.924;-2.388;2024-03-23T09:51:39;98568.69;;;9.23;76.66
43804;BME280;29430;52.924;-2.388;2024-03-23T09:56:30;98564.53;;;9.44;76.46
43804;BME280;29430;52.924;-2.388;2024-03-23T10:01:20;98562.47;;;9.63;73.61
43804;BME280;29430;52.924;-2.388;2024-03-23T10:06:11;98579.25;;;9.37;73.80
43804;BME280;29430;52.924;-2.388;2024-03-23T10:11:15;98557.19;;;8.92;75.09
43804;BME280;29430;52.924;-2.388;2024-03-23T10:16:06;98579.38;;;8.47;76.42
43804;BME280;29430;52.924;-2.388;2024-03-23T10:21:10;98588.09;;;8.19;78.67
43804;BME280;29430;52.924;-2.388;2024-03-23T10:31:11;98565.69;;;8.00;84.87
43804;BME280;29430;52.924;-2.388;2024-03-23T10:36:05;98551.41;;;8.53;88.83
43804;BME280;29430;52.924;-2.388;2024-03-23T10:40:59;98544.00;;;9.20;86.60
43804;BME280;29430;52.924;-2.388;2024-03-23T10:45:50;98549.09;;;9.57;82.64
43804;BME280;29430;52.924;-2.388;2024-03-23T10:50:40;98537.81;;;9.48;78.03
43804;BME280;29430;52.924;-2.388;2024-03-23T10:55:31;98535.81;;;9.43;81.00
43804;BME280;29430;52.924;-2.388;2024-03-23T11:00:25;98529.63;;;9.72;75.53
43804;BME280;29430;52.924;-2.388;2024-03-23T11:05:29;98554.91;;;9.77;74.56
43804;BME280;29430;52.924;-2.388;2024-03-23T11:10:30;98539.56;;;9.54;71.93
43804;BME280;29430;52.924;-2.388;2024-03-23T11:15:22;98534.31;;;9.36;70.23
43804;BME280;29430;52.924;-2.388;2024-03-23T11:20:13;98535.31;;;9.18;70.70
43804;BME280;29430;52.924;-2.388;2024-03-23T11:35:02;98538.16;;;8.99;70.20
43804;BME280;29430;52.924;-2.388;2024-03-23T11:39:53;98525.16;;;9.37;73.39
43804;BME280;29430;52.924;-2.388;2024-03-23T11:44:43;98538.63;;;9.89;67.26
43804;BME280;29430;52.924;-2.388;2024-03-23T11:49:34;98531.41;;;9.66;60.62
43804;BME280;29430;52.924;-2.388;2024-03-23T11:54:31;98538.19;;;9.52;60.34
43804;BME280;29430;52.924;-2.388;2024-03-23T11:59:32;98523.63;;;9.98;63.68
43804;BME280;29430;52.924;-2.388;2024-03-23T12:04:29;98540.44;;;10.80;63.35
43804;BME280;29430;52.924;-2.388;2024-03-23T12:09:20;98536.75;;;11.08;58.66
43804;BME280;29430;52.924;-2.388;2024-03-23T12:14:14;98529.66;;;10.68;58.42
43804;BME280;29430;52.924;-2.388;2024-03-23T12:19:05;98538.25;;;10.31;60.59
43804;BME280;29430;52.924;-2.388;2024-03-23T12:23:56;98534.94;;;9.95;59.90
43804;BME280;29430;52.924;-2.388;2024-03-23T12:28:47;98553.81;;;9.49;64.36
43804;BME280;29430;52.924;-2.388;2024-03-23T12:33:37;98528.00;;;9.18;68.29
43804;BME280;29430;52.924;-2.388;2024-03-23T12:38:28;98533.84;;;9.39;72.75
43804;BME280;29430;52.924;-2.388;2024-03-23T12:43:18;98517.31;;;9.64;73.55
43804;BME280;29430;52.924;-2.388;2024-03-23T12:48:09;98517.38;;;9.98;74.13
43804;BME280;29430;52.924;-2.388;2024-03-23T12:53:00;98521.09;;;10.09;67.22
43804;BME280;29430;52.924;-2.388;2024-03-23T12:57:51;98518.59;;;9.90;68.65
43804;BME280;29430;52.924;-2.388;2024-03-23T13:02:41;98518.88;;;10.06;65.54
43804;BME280;29430;52.924;-2.388;2024-03-23T13:07:32;98529.50;;;10.24;60.82
43804;BME280;29430;52.924;-2.388;2024-03-23T13:12:23;98521.97;;;10.43;60.53
43804;BME280;29430;52.924;-2.388;2024-03-23T13:17:14;98522.53;;;10.45;58.67
43804;BME280;29430;52.924;-2.388;2024-03-23T13:22:05;98526.47;;;10.54;58.76
43804;BME280;29430;52.924;-2.388;2024-03-23T13:26:56;98521.09;;;10.77;58.51
43804;BME280;29430;52.924;-2.388;2024-03-23T13:31:48;98532.69;;;10.72;55.81
43804;BME280;29430;52.924;-2.388;2024-03-23T13:36:39;98534.28;;;10.51;56.44
43804;BME280;29430;52.924;-2.388;2024-03-23T13:41:30;98539.47;;;10.35;55.38
43804;BME280;29430;52.924;-2.388;2024-03-23T13:46:20;98534.50;;;10.32;55.69
43804;BME280;29430;52.924;-2.388;2024-03-23T13:51:11;98536.50;;;10.37;54.09
43804;BME280;29430;52.924;-2.388;2024-03-23T13:56:03;98532.97;;;10.36;55.36
43804;BME280;29430;52.924;-2.388;2024-03-23T14:00:56;98525.25;;;10.45;56.75
43804;BME280;29430;52.924;-2.388;2024-03-23T14:05:48;98523.44;;;10.51;56.08
43804;BME280;29430;52.924;-2.388;2024-03-23T14:10:42;98528.38;;;10.54;54.06
43804;BME280;29430;52.924;-2.388;2024-03-23T14:15:33;98538.31;;;10.48;53.28
43804;BME280;29430;52.924;-2.388;2024-03-23T14:20:24;98542.84;;;10.43;53.94
43804;BME280;29430;52.924;-2.388;2024-03-23T14:25:16;98524.97;;;10.30;53.93
43804;BME280;29430;52.924;-2.388;2024-03-23T14:30:07;98515.84;;;10.19;54.88
43804;BME280;29430;52.924;-2.388;2024-03-23T14:34:59;98512.47;;;10.12;54.11
43804;BME280;29430;52.924;-2.388;2024-03-23T14:39:49;98512.31;;;10.18;55.98
43804;BME280;29430;52.924;-2.388;2024-03-23T14:44:40;98510.53;;;10.24;56.64
43804;BME280;29430;52.924;-2.388;2024-03-23T14:49:32;98514.09;;;10.13;58.91
43804;BME280;29430;52.924;-2.388;2024-03-23T14:54:23;98520.94;;;9.86;61.47
43804;BME280;29430;52.924;-2.388;2024-03-23T14:59:14;98535.47;;;9.52;64.37
43804;BME280;29430;52.924;-2.388;2024-03-23T15:04:05;98519.06;;;9.18;66.43
43804;BME280;29430;52.924;-2.388;2024-03-23T15:08:56;98509.69;;;8.96;66.96
43804;BME280;29430;52.924;-2.388;2024-03-23T15:13:49;98504.06;;;8.86;68.83
43804;BME280;29430;52.924;-2.388;2024-03-23T15:18:40;98488.44;;;8.76;68.08
43804;BME280;29430;52.924;-2.388;2024-03-23T15:23:30;98480.56;;;8.75;68.83
43804;BME280;29430;52.924;-2.388;2024-03-23T15:28:23;98477.16;;;8.80;70.54
43804;BME280;29430;52.924;-2.388;2024-03-23T15:33:13;98485.72;;;8.88;70.42
43804;BME280;29430;52.924;-2.388;2024-03-23T15:38:04;98478.91;;;8.86;69.37
43804;BME280;29430;52.924;-2.388;2024-03-23T15:42:55;98467.63;;;8.89;68.37
43804;BME280;29430;52.924;-2.388;2024-03-23T15:47:46;98470.47;;;8.82;67.85
43804;BME280;29430;52.924;-2.388;2024-03-23T15:52:36;98470.94;;;8.79;68.26
43804;BME280;29430;52.924;-2.388;2024-03-23T15:57:27;98468.56;;;8.71;69.13
43804;BME280;29430;52.924;-2.388;2024-03-23T16:02:18;98471.88;;;8.73;68.62
43804;BME280;29430;52.924;-2.388;2024-03-23T16:07:08;98471.03;;;8.72;68.86
43804;BME280;29430;52.924;-2.388;2024-03-23T16:11:59;98463.75;;;8.73;69.35
43804;BME280;29430;52.924;-2.388;2024-03-23T16:16:50;98474.22;;;8.81;68.82
43804;BME280;29430;52.924;-2.388;2024-03-23T16:21:41;98458.69;;;8.88;69.04
43804;BME280;29430;52.924;-2.388;2024-03-23T16:26:31;98461.50;;;8.93;68.35
43804;BME280;29430;52.924;-2.388;2024-03-23T16:31:22;98469.03;;;8.91;67.84
43804;BME280;29430;52.924;-2.388;2024-03-23T16:36:13;98448.34;;;8.85;66.76
43804;BME280;29430;52.924;-2.388;2024-03-23T16:41:05;98464.34;;;8.87;68.65
43804;BME280;29430;52.924;-2.388;2024-03-23T16:46:01;98474.53;;;8.85;68.64
43804;BME280;29430;52.924;-2.388;2024-03-23T16:50:57;98469.84;;;8.80;68.97
43804;BME280;29430;52.924;-2.388;2024-03-23T16:55:56;98476.34;;;8.79;69.44
43804;BME280;29430;52.924;-2.388;2024-03-23T17:00:49;98476.69;;;8.71;69.68
43804;BME280;29430;52.924;-2.388;2024-03-23T17:05:41;98485.25;;;8.68;69.56
43804;BME280;29430;52.924;-2.388;2024-03-23T17:10:33;98472.91;;;8.60;69.79
43804;BME280;29430;52.924;-2.388;2024-03-23T17:15:23;98475.03;;;8.58;70.36
43804;BME280;29430;52.924;-2.388;2024-03-23T17:20:14;98475.28;;;8.56;70.63
43804;BME280;29430;52.924;-2.388;2024-03-23T17:25:05;98472.47;;;8.51;69.95
43804;BME280;29430;52.924;-2.388;2024-03-23T17:29:56;98475.88;;;8.47;71.22
43804;BME280;29430;52.924;-2.388;2024-03-23T17:34:47;98458.59;;;8.48;71.23
43804;BME280;29430;52.924;-2.388;2024-03-23T17:39:37;98452.38;;;8.47;71.02
43804;BME280;29430;52.924;-2.388;2024-03-23T17:44:28;98440.50;;;8.48;69.58
43804;BME280;29430;52.924;-2.388;2024-03-23T17:49:19;98443.69;;;8.45;70.03
43804;BME280;29430;52.924;-2.388;2024-03-23T17:54:10;98451.56;;;8.47;69.31
43804;BME280;29430;52.924;-2.388;2024-03-23T17:59:03;98455.75;;;8.42;69.23
43804;BME280;29430;52.924;-2.388;2024-03-23T18:03:53;98457.44;;;8.44;69.88
43804;BME280;29430;52.924;-2.388;2024-03-23T18:08:44;98478.88;;;8.38;69.14
43804;BME280;29430;52.924;-2.388;2024-03-23T18:13:34;98475.38;;;8.38;69.93
43804;BME280;29430;52.924;-2.388;2024-03-23T18:18:25;98471.00;;;8.37;70.45
43804;BME280;29430;52.924;-2.388;2024-03-23T18:23:17;98469.63;;;8.34;69.94
43804;BME280;29430;52.924;-2.388;2024-03-23T18:28:08;98469.84;;;8.33;69.70
43804;BME280;29430;52.924;-2.388;2024-03-23T18:32:59;98465.97;;;8.29;69.81
43804;BME280;29430;52.924;-2.388;2024-03-23T18:37:49;98468.91;;;8.27;71.02
43804;BME280;29430;52.924;-2.388;2024-03-23T18:42:44;98460.44;;;8.23;71.32
43804;BME280;29430;52.924;-2.388;2024-03-23T18:47:35;98473.34;;;8.21;72.01
43804;BME280;29430;52.924;-2.388;2024-03-23T18:52:29;98483.56;;;8.19;72.44
43804;BME280;29430;52.924;-2.388;2024-03-23T18:57:19;98485.69;;;8.17;73.19
43804;BME280;29430;52.924;-2.388;2024-03-23T19:02:10;98477.81;;;8.16;74.80
43804;BME280;29430;52.924;-2.388;2024-03-23T19:07:00;98471.22;;;8.12;74.81
43804;BME280;29430;52.924;-2.388;2024-03-23T19:11:51;98483.44;;;8.14;75.06
43804;BME280;29430;52.924;-2.388;2024-03-23T19:16:42;98471.47;;;8.10;76.21
43804;BME280;29430;52.924;-2.388;2024-03-23T19:21:32;98484.16;;;8.10;76.13
43804;BME280;29430;52.924;-2.388;2024-03-23T19:26:23;98475.44;;;8.07;75.22
43804;BME280;29430;52.924;-2.388;2024-03-23T19:31:14;98463.72;;;8.02;75.05
43804;BME280;29430;52.924;-2.388;2024-03-23T19:36:07;98462.06;;;8.01;75.66
43804;BME280;29430;52.924;-2.388;2024-03-23T19:40:57;98456.88;;;7.99;76.03
43804;BME280;29430;52.924;-2.388;2024-03-23T19:45:50;98471.56;;;8.03;75.63
43804;BME280;29430;52.924;-2.388;2024-03-23T19:50:40;98469.91;;;8.02;75.70
43804;BME280;29430;52.924;-2.388;2024-03-23T19:55:31;98450.66;;;7.99;75.50
43804;BME280;29430;52.924;-2.388;2024-03-23T20:00:22;98456.53;;;7.96;75.65
43804;BME280;29430;52.924;-2.388;2024-03-23T20:05:13;98445.00;;;7.88;76.56
43804;BME280;29430;52.924;-2.388;2024-03-23T20:10:05;98440.06;;;7.85;76.90
43804;BME280;29430;52.924;-2.388;2024-03-23T20:14:56;98444.66;;;7.85;77.33
43804;BME280;29430;52.924;-2.388;2024-03-23T20:19:46;98438.41;;;7.84;78.42
43804;BME280;29430;52.924;-2.388;2024-03-23T20:24:37;98455.06;;;7.81;78.80
43804;BME280;29430;52.924;-2.388;2024-03-23T20:29:28;98449.91;;;7.80;79.81
43804;BME280;29430;52.924;-2.388;2024-03-23T20:34:19;98443.34;;;7.76;80.58
43804;BME280;29430;52.924;-2.388;2024-03-23T20:39:11;98441.91;;;7.73;82.08
43804;BME280;29430;52.924;-2.388;2024-03-23T20:44:02;98427.22;;;7.69;82.69
43804;BME280;29430;52.924;-2.388;2024-03-23T20:48:52;98429.00;;;7.63;82.54
43804;BME280;29430;52.924;-2.388;2024-03-23T20:53:43;98452.91;;;7.60;83.30
43804;BME280;29430;52.924;-2.388;2024-03-23T20:58:35;98427.00;;;7.59;83.35
43804;BME280;29430;52.924;-2.388;2024-03-23T21:03:27;98452.78;;;7.55;83.33
43804;BME280;29430;52.924;-2.388;2024-03-23T21:08:17;98446.78;;;7.52;84.04
43804;BME280;29430;52.924;-2.388;2024-03-23T21:13:08;98458.97;;;7.55;84.90
43804;BME280;29430;52.924;-2.388;2024-03-23T21:18:01;98464.84;;;7.52;87.15
43804;BME280;29430;52.924;-2.388;2024-03-23T21:22:51;98468.44;;;7.46;88.91
43804;BME280;29430;52.924;-2.388;2024-03-23T21:27:42;98460.00;;;7.42;90.73
43804;BME280;29430;52.924;-2.388;2024-03-23T21:32:33;98459.25;;;7.35;91.86
43804;BME280;29430;52.924;-2.388;2024-03-23T21:37:24;98466.63;;;7.28;91.97
43804;BME280;29430;52.924;-2.388;2024-03-23T21:42:14;98461.69;;;7.25;91.29
43804;BME280;29430;52.924;-2.388;2024-03-23T21:47:05;98456.53;;;7.23;91.83
43804;BME280;29430;52.924;-2.388;2024-03-23T21:51:57;98459.22;;;7.23;91.75
43804;BME280;29430;52.924;-2.388;2024-03-23T21:56:50;98455.69;;;7.23;90.97
43804;BME280;29430;52.924;-2.388;2024-03-23T22:01:41;98457.22;;;7.19;90.84
43804;BME280;29430;52.924;-2.388;2024-03-23T22:06:31;98461.63;;;7.13;90.65
43804;BME280;29430;52.924;-2.388;2024-03-23T22:11:22;98450.94;;;7.06;91.74
43804;BME280;29430;52.924;-2.388;2024-03-23T22:16:13;98465.00;;;7.08;92.37
43804;BME280;29430;52.924;-2.388;2024-03-23T22:21:04;98450.25;;;7.11;92.96
43804;BME280;29430;52.924;-2.388;2024-03-23T22:25:54;98456.31;;;7.06;93.11
43804;BME280;29430;52.924;-2.388;2024-03-23T22:35:46;98461.53;;;7.01;94.89
43804;BME280;29430;52.924;-2.388;2024-03-23T22:40:37;98456.84;;;6.96;96.64
43804;BME280;29430;52.924;-2.388;2024-03-23T22:45:28;98466.56;;;6.97;97.72
43804;BME280;29430;52.924;-2.388;2024-03-23T22:50:18;98458.50;;;6.97;97.69
43804;BME280;29430;52.924;-2.388;2024-03-23T22:55:09;98460.38;;;6.97;98.33
43804;BME280;29430;52.924;-2.388;2024-03-23T22:59:59;98468.47;;;6.97;98.13
43804;BME280;29430;52.924;-2.388;2024-03-23T23:04:50;98475.47;;;6.98;98.64
43804;BME280;29430;52.924;-2.388;2024-03-23T23:09:41;98458.50;;;6.97;99.68
43804;BME280;29430;52.924;-2.388;2024-03-23T23:14:32;98448.38;;;6.93;99.96
43804;BME280;29430;52.924;-2.388;2024-03-23T23:19:22;98456.78;;;6.85;99.94
43804;BME280;29430;52.924;-2.388;2024-03-23T23:24:13;98469.72;;;6.76;100.00
43804;BME280;29430;52.924;-2.388;2024-03-23T23:29:03;98469.56;;;6.71;100.00
43804;BME280;29430;52.924;-2.388;2024-03-23T23:33:54;98467.31;;;6.68;100.00
43804;BME280;29430;52.924;-2.388;2024-03-23T23:38:48;98465.91;;;6.65;100.00
43804;BME280;29430;52.924;-2.388;2024-03-23T23:43:39;98468.13;;;6.68;100.00
43804;BME280;29430;52.924;-2.388;2024-03-23T23:48:30;98476.53;;;6.60;100.00
43804;BME280;29430;52.924;-2.388;2024-03-23T23:53:21;98477.56;;;6.59;100.00
43804;BME280;29430;52.924;-2.388;2024-03-23T23:58:11;98480.69;;;6.56;100.00
